Home   Weather   Lapland   Past weeks
Flag for Finland

Past Weather in Lapland, Finland — Yesterday and Last 2 Weeks

Currently: 59 °F. Passing clouds. (Weather station: Kittila, Finland). See more current weather

Past Weather in Lapland — Graph

°F

Lapland Temperature Yesterday

Maximum temperature yesterday: 72 °F (at 5:50 pm)
Minimum temperature yesterday: 37 °F (at 2:20 am)
Average temperature yesterday: 57 °F

High & Low Weather Summary for the Past Weeks

 TemperatureHumidityPressure
High72 °F (May 17, 5:50 pm)100% (May 3, 8:20 pm)30.39 "Hg (May 3, 8:20 pm)
Low18 °F (May 8, 3:20 am)28% (May 18, 3:50 pm)29.65 "Hg (May 18, 7:20 pm)
Average42 °F62%30.02 "Hg
* Reported May 3 8:20 pm — May 18 8:50 pm, Lapland. Weather by CustomWeather, © 2024

Note: Actual official high and low records may vary slightly from our data, if they occured in-between our weather recording intervals... More about our weather records

Lapland Weather History for the Previous 24 Hours

Scroll right to see more
 ConditionsComfort  
Time TempWeatherWind HumidityBarometerVisibility
8:50 pm
Sat, May 18
61 °FSunny.8 mph45%29.65 "Hg10 mi
8:20 pm63 °FPassing clouds.10 mph42%29.65 "HgN/A
7:20 pm66 °FPassing clouds.17 mph35%29.65 "HgN/A
6:50 pm66 °FSunny.15 mph35%29.68 "Hg10 mi
6:20 pm66 °FPassing clouds.17 mph32%29.68 "HgN/A
5:50 pm68 °FPassing clouds.13 mph28%29.68 "HgN/A
5:20 pm70 °FSunny.16 mph29%29.68 "Hg10 mi
4:20 pm68 °FPassing clouds.15 mph28%29.71 "HgN/A
3:50 pm68 °FPassing clouds.13 mph28%29.71 "HgN/A
3:20 pm68 °FPassing clouds.14 mph30%29.71 "HgN/A
2:50 pm68 °FPassing clouds.15 mph33%29.71 "HgN/A
2:20 pm68 °FPassing clouds.13 mph35%29.71 "HgN/A
1:50 pm68 °FPassing clouds.13 mph38%29.71 "HgN/A
1:20 pm68 °FPassing clouds.10 mph38%29.71 "HgN/A
12:50 pm66 °FSunny.9 mph40%29.71 "Hg10 mi
12:20 pm68 °FPassing clouds.10 mph40%29.71 "HgN/A
11:50 am64 °FPassing clouds.8 mph46%29.74 "HgN/A
11:20 am66 °FPassing clouds.9 mph43%29.74 "HgN/A
10:50 am64 °FPassing clouds.9 mph46%29.74 "HgN/A
10:20 am63 °FPassing clouds.8 mph49%29.74 "HgN/A
9:50 am63 °FPassing clouds.6 mph49%29.74 "HgN/A
9:20 am61 °FSunny.10 mph52%29.77 "Hg10 mi
8:50 am59 °FSunny.9 mph55%29.77 "Hg10 mi
8:20 am59 °FSunny.9 mph55%29.77 "Hg10 mi
7:50 am57 °FPassing clouds.8 mph59%29.77 "HgN/A
7:20 am55 °FSunny.8 mph63%29.77 "Hg10 mi
6:50 am55 °FPassing clouds.8 mph63%29.77 "HgN/A
6:20 am54 °FSunny.3 mph67%29.80 "Hg10 mi
5:50 am50 °FSunny.3 mph76%29.80 "Hg10 mi
5:20 am48 °FCool.3 mph82%29.80 "HgN/A
4:50 am50 °FSunny.7 mph76%29.80 "Hg10 mi
4:20 am50 °FSunny.9 mph76%29.83 "Hg10 mi
3:50 am50 °FSunny.6 mph76%29.83 "Hg10 mi
2:50 am52 °FClear.2 mph67%29.83 "Hg10 mi
2:20 am54 °FCool.3 mph63%29.86 "HgN/A
1:50 am54 °FThundershowers. Overcast.2 mph63%29.86 "HgN/A
1:20 am54 °FClear.2 mph63%29.86 "Hg10 mi
12:50 am55 °FClear.2 mph63%29.89 "Hg10 mi
12:20 am57 °FPassing clouds.5 mph55%29.89 "HgN/A
11:50 pm
Fri, May 17
57 °FClear.6 mph59%29.89 "Hg10 mi
11:20 pm59 °FSunny.8 mph55%29.92 "Hg10 mi
10:50 pm59 °FSunny.9 mph55%29.92 "Hg10 mi
10:20 pm63 °FSunny.12 mph49%29.92 "Hg10 mi
Weather by CustomWeather, © 2024

See weather overview